Time;durP1;ratioP1;P1;durP2;ratioP2;P2;SDS_P1;SDS_P2;PMS_P1;PMS_P2;Temp;Humidity;BMP_temperature;BMP_pressure;BME280_temperature;BME280_humidity;BME280_pressure;Samples;Min_cycle;Max_cycle;Signal;HPM_P1;HPM_P2
2023/08/18 00:00:06;;;;;;;100.80;30.42;;;16.20;99.90;;;;;;4967016;28;21353;-75
2023/08/18 00:02:35;;;;;;;103.32;30.13;;;16.40;99.90;;;;;;4972840;28;20129;-74
2023/08/18 00:05:02;;;;;;;106.13;28.45;;;16.30;99.90;;;;;;4968731;28;20153;-74
2023/08/18 00:07:28;;;;;;;82.07;26.38;;;16.10;99.90;;;;;;4972835;28;20045;-74
2023/08/18 00:09:56;;;;;;;100.13;27.15;;;16.10;99.90;;;;;;4972323;28;20070;-74
2023/08/18 00:12:23;;;;;;;89.72;25.75;;;16.10;99.90;;;;;;4966753;28;20709;-74
2023/08/18 00:14:54;;;;;;;91.57;25.70;;;16.00;99.90;;;;;;4970826;28;20038;-75
2023/08/18 00:17:20;;;;;;;90.90;25.73;;;16.00;99.90;;;;;;4972014;28;20065;-74
2023/08/18 00:19:47;;;;;;;105.30;26.38;;;16.00;99.90;;;;;;4974514;28;20108;-74
2023/08/18 00:22:14;;;;;;;108.43;27.65;;;16.00;99.90;;;;;;4966152;28;20053;-75
2023/08/18 00:24:41;;;;;;;86.20;25.60;;;16.10;99.90;;;;;;4968706;28;20042;-75
2023/08/18 00:27:07;;;;;;;105.82;26.23;;;16.10;99.90;;;;;;4970095;28;20038;-75
2023/08/18 00:29:34;;;;;;;91.50;26.40;;;16.10;99.90;;;;;;4972143;28;20104;-75
2023/08/18 00:32:01;;;;;;;98.13;27.35;;;16.20;99.90;;;;;;4966451;28;20116;-74
2023/08/18 00:34:27;;;;;;;92.00;26.73;;;16.30;99.90;;;;;;4970417;28;21238;-75
2023/08/18 00:36:56;;;;;;;102.18;27.90;;;16.20;99.90;;;;;;4968983;28;20636;-74
2023/08/18 00:39:23;;;;;;;80.38;26.65;;;16.20;99.90;;;;;;4968202;28;20058;-74
2023/08/18 00:41:49;;;;;;;101.10;28.05;;;16.20;99.90;;;;;;4967607;28;20046;-75
2023/08/18 00:44:17;;;;;;;107.90;29.05;;;16.10;99.90;;;;;;4969676;28;20054;-75
2023/08/18 00:46:45;;;;;;;96.07;28.30;;;16.20;99.90;;;;;;4972707;28;20551;-74
2023/08/18 00:49:14;;;;;;;74.88;26.00;;;16.20;99.90;;;;;;4967777;28;20042;-75
2023/08/18 00:51:41;;;;;;;86.95;28.05;;;16.20;99.90;;;;;;4970526;28;20654;-74
2023/08/18 00:54:10;;;;;;;92.20;27.40;;;16.20;99.90;;;;;;4968573;28;20120;-74
2023/08/18 00:56:37;;;;;;;94.05;26.23;;;16.40;99.90;;;;;;4952767;28;20128;-74
2023/08/18 00:59:05;;;;;;;80.50;26.15;;;16.40;99.90;;;;;;4973838;28;21518;-74
2023/08/18 01:01:33;;;;;;;72.10;25.50;;;16.30;99.90;;;;;;4970839;28;20900;-74
2023/08/18 01:04:00;;;;;;;80.70;25.80;;;16.30;99.90;;;;;;4969175;28;20054;-74
2023/08/18 01:06:27;;;;;;;71.35;24.27;;;16.30;99.90;;;;;;4970680;28;20054;-74
2023/08/18 01:08:54;;;;;;;80.93;25.83;;;16.30;99.90;;;;;;4962976;28;20065;-75
2023/08/18 01:11:41;;;;;;;80.95;23.85;;;16.30;99.90;;;;;;4948852;28;20202;-77
2023/08/18 01:14:39;;;;;;;83.75;26.75;;;16.20;99.90;;;;;;4949793;28;20054;-75
2023/08/18 01:17:17;;;;;;;94.57;24.75;;;16.30;99.90;;;;;;4981991;28;20042;-76
2023/08/18 01:19:46;;;;;;;77.13;25.10;;;16.30;99.90;;;;;;4968127;28;20046;-76
2023/08/18 01:22:17;;;;;;;98.10;27.33;;;16.30;99.90;;;;;;4965795;28;20057;-76
2023/08/18 01:24:44;;;;;;;112.43;27.98;;;16.40;99.90;;;;;;4966714;28;20049;-74
2023/08/18 01:27:11;;;;;;;102.28;27.10;;;16.50;99.90;;;;;;4959053;28;20124;-76
2023/08/18 01:29:37;;;;;;;103.93;29.33;;;16.50;99.90;;;;;;4969396;28;20093;-76
2023/08/18 01:32:07;;;;;;;113.88;27.67;;;16.50;99.90;;;;;;4967820;28;20456;-76
2023/08/18 01:34:40;;;;;;;101.32;27.05;;;16.60;99.90;;;;;;4984399;28;20105;-76
2023/08/18 01:37:08;;;;;;;123.47;28.90;;;16.60;99.90;;;;;;4949469;28;20050;-76
2023/08/18 01:39:35;;;;;;;130.20;31.00;;;16.50;99.90;;;;;;4971484;28;20108;-75
2023/08/18 01:42:02;;;;;;;94.60;27.73;;;16.50;99.90;;;;;;4966215;28;20050;-75
2023/08/18 01:44:29;;;;;;;131.95;29.85;;;16.50;99.90;;;;;;4981501;28;20046;-76
2023/08/18 01:46:56;;;;;;;92.60;28.00;;;16.50;99.90;;;;;;4963916;28;20046;-76
2023/08/18 01:49:23;;;;;;;121.70;29.55;;;16.60;99.90;;;;;;4971107;28;20120;-76
2023/08/18 01:51:49;;;;;;;143.00;30.15;;;16.70;99.90;;;;;;4968750;28;20042;-76
2023/08/18 01:54:18;;;;;;;139.48;29.58;;;16.70;99.90;;;;;;4960363;28;20053;-76
2023/08/18 01:56:45;;;;;;;110.05;28.95;;;16.60;99.90;;;;;;4967050;28;20058;-76
2023/08/18 01:59:14;;;;;;;107.00;28.63;;;16.60;99.90;;;;;;4968784;28;20054;-76
2023/08/18 02:01:40;;;;;;;115.22;28.60;;;16.60;99.90;;;;;;4967628;28;20517;-76
2023/08/18 02:04:07;;;;;;;104.75;29.73;;;16.50;99.90;;;;;;4963579;28;20484;-76
2023/08/18 02:06:34;;;;;;;95.50;28.17;;;16.50;99.90;;;;;;4969939;28;20042;-76
2023/08/18 02:09:01;;;;;;;94.60;28.27;;;16.60;99.90;;;;;;4969915;28;20045;-76
2023/08/18 02:11:28;;;;;;;94.45;28.33;;;16.50;99.90;;;;;;4967188;28;20058;-76
2023/08/18 02:13:55;;;;;;;75.07;28.27;;;16.60;99.90;;;;;;4969150;28;20559;-76
2023/08/18 02:16:22;;;;;;;92.25;27.88;;;16.60;99.90;;;;;;4940560;28;20046;-76
2023/08/18 02:18:49;;;;;;;78.90;28.00;;;16.60;99.90;;;;;;4966197;28;20049;-76
2023/08/18 02:21:16;;;;;;;94.95;30.38;;;16.60;99.90;;;;;;4966244;28;20448;-76
2023/08/18 02:23:43;;;;;;;71.47;27.98;;;16.70;99.90;;;;;;4972988;28;20042;-76
2023/08/18 02:26:10;;;;;;;87.55;30.08;;;16.90;99.90;;;;;;4964583;28;20043;-76
2023/08/18 02:28:36;;;;;;;73.03;28.27;;;16.80;99.90;;;;;;4964768;28;20043;-76
2023/08/18 02:31:07;;;;;;;79.95;30.05;;;16.80;99.90;;;;;;4965473;28;20058;-76
2023/08/18 02:33:35;;;;;;;78.22;29.20;;;16.90;99.90;;;;;;4970272;28;20184;-76
2023/08/18 02:36:02;;;;;;;91.32;29.42;;;17.00;99.90;;;;;;4949812;28;20042;-76
2023/08/18 02:38:30;;;;;;;105.28;30.10;;;16.90;99.90;;;;;;4983631;28;20137;-76
2023/08/18 02:40:57;;;;;;;111.28;30.83;;;16.90;99.90;;;;;;4967168;28;20031;-76
2023/08/18 02:43:24;;;;;;;102.70;28.98;;;16.80;99.90;;;;;;4967577;28;20852;-76
2023/08/18 02:45:58;;;;;;;99.25;29.17;;;16.70;99.90;;;;;;4969855;28;20038;-76
2023/08/18 02:48:27;;;;;;;94.10;29.65;;;16.70;99.90;;;;;;4948664;28;20096;-76
2023/08/18 02:51:09;;;;;;;81.68;26.67;;;16.70;99.90;;;;;;4963571;28;20645;-76
2023/08/18 02:53:39;;;;;;;102.90;30.55;;;16.70;99.90;;;;;;4971648;28;20076;-76
2023/08/18 02:56:07;;;;;;;93.75;29.33;;;16.70;99.90;;;;;;4957194;28;20054;-76
2023/08/18 02:58:33;;;;;;;83.95;27.00;;;16.70;99.90;;;;;;4960247;28;20058;-76
2023/08/18 03:01:03;;;;;;;95.82;28.40;;;16.70;99.90;;;;;;4970184;28;20247;-76
2023/08/18 03:03:32;;;;;;;89.70;29.65;;;16.70;99.90;;;;;;4966732;28;20070;-76
2023/08/18 03:06:05;;;;;;;101.80;27.95;;;16.70;99.90;;;;;;4968668;28;20177;-74
2023/08/18 03:08:32;;;;;;;95.70;26.67;;;16.70;99.90;;;;;;4953387;28;20046;-76
2023/08/18 03:11:00;;;;;;;94.05;26.75;;;16.70;99.90;;;;;;4952401;28;20476;-76
2023/08/18 03:13:28;;;;;;;95.60;28.77;;;16.70;99.90;;;;;;4963037;28;20238;-76
2023/08/18 03:15:55;;;;;;;105.85;27.38;;;16.70;99.90;;;;;;4969377;28;20564;-76
2023/08/18 03:18:22;;;;;;;107.70;27.50;;;16.70;99.90;;;;;;4960526;28;20081;-77
2023/08/18 03:20:50;;;;;;;105.78;28.45;;;16.70;99.90;;;;;;4969885;28;20049;-74
2023/08/18 03:23:18;;;;;;;105.88;28.05;;;16.80;99.90;;;;;;4963358;28;20080;-76
2023/08/18 03:25:45;;;;;;;108.10;29.33;;;16.80;99.90;;;;;;4970512;28;20027;-75
2023/08/18 03:28:12;;;;;;;115.90;29.83;;;16.80;99.90;;;;;;4950921;28;20488;-76
2023/08/18 03:30:39;;;;;;;118.60;30.08;;;16.70;99.90;;;;;;4951530;28;20043;-74
2023/08/18 03:33:07;;;;;;;109.88;28.13;;;16.70;99.90;;;;;;4960578;28;20054;-75
2023/08/18 03:35:35;;;;;;;109.90;30.10;;;16.70;99.90;;;;;;4971464;28;20843;-76
2023/08/18 03:38:03;;;;;;;118.93;29.50;;;16.80;99.90;;;;;;4973143;28;20510;-74
2023/08/18 03:40:31;;;;;;;139.38;30.05;;;16.80;99.90;;;;;;4968747;28;20054;-74
2023/08/18 03:42:58;;;;;;;100.95;28.88;;;16.90;99.90;;;;;;4968222;28;20483;-76
2023/08/18 03:45:25;;;;;;;112.75;29.77;;;16.70;99.90;;;;;;4968782;28;20042;-74
2023/08/18 03:47:52;;;;;;;107.18;29.00;;;16.80;99.90;;;;;;4975048;28;20125;-74
2023/08/18 03:50:21;;;;;;;109.18;29.15;;;16.90;99.90;;;;;;4948578;28;20053;-77
2023/08/18 03:52:48;;;;;;;109.25;29.95;;;16.90;99.90;;;;;;4965225;28;20134;-76
2023/08/18 03:55:15;;;;;;;107.40;29.88;;;16.90;99.90;;;;;;4964131;28;20039;-76
2023/08/18 03:57:42;;;;;;;99.55;29.25;;;16.90;99.90;;;;;;4974281;28;20644;-76
2023/08/18 04:00:09;;;;;;;115.97;30.13;;;16.90;99.90;;;;;;4963096;28;20089;-76
2023/08/18 04:02:39;;;;;;;91.75;26.77;;;16.90;99.90;;;;;;4971547;28;21883;-76
2023/08/18 04:05:10;;;;;;;128.15;30.00;;;16.80;99.90;;;;;;4963904;28;20504;-76
2023/08/18 04:07:36;;;;;;;110.25;27.20;;;16.80;99.90;;;;;;4950375;28;20046;-76
2023/08/18 04:10:04;;;;;;;119.38;30.23;;;16.80;99.90;;;;;;4973685;28;20042;-76
2023/08/18 04:12:31;;;;;;;136.30;30.17;;;16.80;99.90;;;;;;4946990;28;20832;-76
2023/08/18 04:14:58;;;;;;;117.68;31.13;;;16.90;99.90;;;;;;4971372;28;20057;-76
2023/08/18 04:17:25;;;;;;;103.35;30.20;;;16.90;99.90;;;;;;4968564;28;20105;-74
2023/08/18 04:19:53;;;;;;;110.03;29.88;;;17.00;99.90;;;;;;4969567;28;20046;-76
2023/08/18 04:22:21;;;;;;;103.80;30.98;;;16.90;99.90;;;;;;4948673;28;20178;-76
2023/08/18 04:24:48;;;;;;;114.63;32.10;;;16.90;99.90;;;;;;4971291;28;20039;-76
2023/08/18 04:27:14;;;;;;;103.35;29.45;;;17.10;99.90;;;;;;4951177;28;20059;-76
2023/08/18 04:29:41;;;;;;;97.28;29.23;;;17.00;99.90;;;;;;4966602;28;20046;-76
2023/08/18 04:32:08;;;;;;;91.50;29.40;;;17.00;99.90;;;;;;4970705;28;20521;-76
2023/08/18 04:34:35;;;;;;;82.70;30.17;;;17.10;99.90;;;;;;4950852;28;20060;-75
2023/08/18 04:37:03;;;;;;;74.25;29.55;;;17.00;99.90;;;;;;4969949;28;20529;-76
2023/08/18 04:39:31;;;;;;;69.85;29.00;;;17.00;99.90;;;;;;4965325;28;20544;-76
2023/08/18 04:41:58;;;;;;;73.47;29.15;;;17.00;99.90;;;;;;4949075;28;20573;-76
2023/08/18 04:44:29;;;;;;;77.88;29.88;;;17.00;99.90;;;;;;4969345;28;20038;-76
2023/08/18 04:46:56;;;;;;;56.33;25.88;;;17.10;99.90;;;;;;4973316;28;20038;-76
2023/08/18 04:49:24;;;;;;;55.13;26.02;;;17.00;99.90;;;;;;4952604;28;20876;-76
2023/08/18 04:51:50;;;;;;;55.75;27.17;;;16.90;99.90;;;;;;4966910;28;20043;-76
2023/08/18 04:54:18;;;;;;;57.05;26.98;;;16.90;99.90;;;;;;4951233;28;20457;-76
2023/08/18 04:56:46;;;;;;;66.57;27.67;;;17.00;99.90;;;;;;4970335;28;20042;-76
2023/08/18 04:59:14;;;;;;;72.10;28.27;;;17.00;99.90;;;;;;4971672;28;20124;-76
2023/08/18 05:01:43;;;;;;;55.28;27.20;;;17.10;99.90;;;;;;4957507;28;20061;-76
2023/08/18 05:04:09;;;;;;;66.45;27.67;;;17.00;99.90;;;;;;4954495;28;20039;-76
2023/08/18 05:06:36;;;;;;;59.20;29.88;;;17.10;99.90;;;;;;4969934;28;20042;-76
2023/08/18 05:09:05;;;;;;;65.28;30.17;;;17.10;99.90;;;;;;4950497;28;20042;-74
2023/08/18 05:11:32;;;;;;;65.82;28.35;;;17.10;99.90;;;;;;4962396;28;20050;-75
2023/08/18 05:13:58;;;;;;;70.47;28.48;;;17.10;99.90;;;;;;4965610;28;20034;-76
2023/08/18 05:16:25;;;;;;;66.32;28.95;;;17.10;99.90;;;;;;4965311;28;20039;-74
2023/08/18 05:18:52;;;;;;;48.40;25.27;;;17.10;99.90;;;;;;4974857;28;20042;-74
2023/08/18 05:21:22;;;;;;;56.25;26.40;;;17.10;99.90;;;;;;4967162;28;20058;-74
2023/08/18 05:23:49;;;;;;;54.20;26.30;;;17.10;99.90;;;;;;4970630;28;20692;-73
2023/08/18 05:26:16;;;;;;;62.65;26.48;;;17.10;99.90;;;;;;4972050;28;20517;-75
2023/08/18 05:28:44;;;;;;;60.90;27.58;;;17.20;99.90;;;;;;4984113;28;20056;-74
2023/08/18 05:31:11;;;;;;;55.15;27.70;;;17.10;99.90;;;;;;4966775;28;20039;-74
2023/08/18 05:33:38;;;;;;;58.15;27.73;;;17.20;99.90;;;;;;4971916;28;20156;-74
2023/08/18 05:36:06;;;;;;;57.25;28.33;;;17.20;99.90;;;;;;4971355;28;20050;-77
2023/08/18 05:38:33;;;;;;;50.03;24.95;;;17.20;99.90;;;;;;4964976;28;20046;-74
2023/08/18 05:41:06;;;;;;;52.30;24.25;;;17.20;99.90;;;;;;4964865;28;20035;-74
2023/08/18 05:43:37;;;;;;;54.67;25.92;;;17.20;99.90;;;;;;4963791;28;20157;-75
2023/08/18 05:46:04;;;;;;;49.63;25.40;;;17.20;99.90;;;;;;4969748;28;20704;-75
2023/08/18 05:48:32;;;;;;;55.50;25.63;;;17.30;99.90;;;;;;4959915;28;20108;-75
2023/08/18 05:51:00;;;;;;;40.38;23.30;;;17.30;99.90;;;;;;4972461;28;20039;-75
2023/08/18 05:53:27;;;;;;;49.05;25.00;;;17.20;99.90;;;;;;4970028;28;20047;-75
2023/08/18 05:55:54;;;;;;;48.33;24.80;;;17.30;99.90;;;;;;4975084;28;20104;-75
2023/08/18 05:58:24;;;;;;;59.97;24.65;;;17.30;99.90;;;;;;4973867;28;20050;-74
2023/08/18 06:00:51;;;;;;;53.00;24.77;;;17.20;99.90;;;;;;4976735;28;20560;-75
2023/08/18 06:03:20;;;;;;;57.67;25.60;;;17.20;99.90;;;;;;4970038;28;20031;-74
2023/08/18 06:05:48;;;;;;;54.67;27.08;;;17.20;99.90;;;;;;4970842;28;20053;-75
2023/08/18 06:08:15;;;;;;;50.60;25.23;;;17.30;99.90;;;;;;4972606;28;20666;-75
2023/08/18 06:10:42;;;;;;;49.17;25.67;;;17.30;99.90;;;;;;4974135;28;20047;-75
2023/08/18 06:13:09;;;;;;;60.38;26.40;;;17.40;99.90;;;;;;4972684;28;20053;-75
2023/08/18 06:15:36;;;;;;;55.95;26.20;;;17.40;99.90;;;;;;4967556;28;20049;-75
2023/08/18 06:18:03;;;;;;;53.42;26.23;;;17.40;99.90;;;;;;4973647;28;20054;-75
2023/08/18 06:20:31;;;;;;;43.75;24.38;;;17.50;99.90;;;;;;4965866;28;20097;-75
2023/08/18 06:22:57;;;;;;;50.25;23.42;;;17.50;99.90;;;;;;4970818;28;20136;-75
2023/08/18 06:25:26;;;;;;;45.33;23.80;;;17.50;99.90;;;;;;4969557;28;20089;-75
2023/08/18 06:27:53;;;;;;;45.28;23.42;;;17.40;99.90;;;;;;4975236;28;20062;-75
2023/08/18 06:30:20;;;;;;;48.70;24.15;;;17.50;99.90;;;;;;4971289;28;20034;-75
2023/08/18 06:32:47;;;;;;;44.47;24.08;;;17.60;99.90;;;;;;4972074;28;20046;-75
2023/08/18 06:35:14;;;;;;;41.15;22.85;;;17.70;99.90;;;;;;4971639;28;20038;-75
2023/08/18 06:37:40;;;;;;;42.03;23.70;;;17.70;99.90;;;;;;4967104;28;20584;-74
2023/08/18 06:40:08;;;;;;;39.00;22.08;;;17.80;99.90;;;;;;4970451;28;20046;-74
2023/08/18 06:42:35;;;;;;;36.75;21.27;;;17.70;99.90;;;;;;4963971;28;20046;-75
2023/08/18 06:45:03;;;;;;;36.00;22.30;;;17.70;99.90;;;;;;4968534;28;20046;-74
2023/08/18 06:47:30;;;;;;;38.88;21.92;;;17.90;99.90;;;;;;4968304;28;20711;-75
2023/08/18 06:50:00;;;;;;;38.15;21.25;;;17.80;99.90;;;;;;4970189;28;20093;-75
2023/08/18 06:52:28;;;;;;;35.95;21.50;;;17.90;99.90;;;;;;4971682;28;20104;-74
2023/08/18 06:54:55;;;;;;;36.67;21.52;;;18.00;99.90;;;;;;4973392;28;20137;-75
2023/08/18 06:57:22;;;;;;;34.67;21.25;;;18.00;99.90;;;;;;4953015;28;20138;-72
2023/08/18 06:59:49;;;;;;;35.22;21.73;;;18.10;99.90;;;;;;4966284;28;20116;-76
2023/08/18 07:02:16;;;;;;;29.42;20.65;;;18.10;99.90;;;;;;4971374;28;20066;-76
2023/08/18 07:04:43;;;;;;;34.08;22.13;;;18.10;99.90;;;;;;4968927;28;20065;-75
2023/08/18 07:07:10;;;;;;;31.67;20.75;;;18.20;99.90;;;;;;4968861;28;20043;-76
2023/08/18 07:09:37;;;;;;;30.42;21.00;;;18.30;99.90;;;;;;4973913;28;20054;-76
2023/08/18 07:12:04;;;;;;;27.10;19.13;;;18.20;99.90;;;;;;4972360;28;20578;-75
2023/08/18 07:14:31;;;;;;;28.08;20.10;;;18.20;99.90;;;;;;4969280;28;20113;-75
2023/08/18 07:16:59;;;;;;;25.45;19.48;;;18.20;99.90;;;;;;4976312;28;20038;-75
2023/08/18 07:19:26;;;;;;;26.15;18.38;;;18.30;99.90;;;;;;4973324;28;20117;-75
2023/08/18 07:21:52;;;;;;;22.63;17.08;;;18.50;99.90;;;;;;4971968;28;20050;-75
2023/08/18 07:24:19;;;;;;;24.02;17.10;;;18.70;99.90;;;;;;4973791;28;20076;-74
2023/08/18 07:26:46;;;;;;;21.13;16.52;;;18.70;99.90;;;;;;4976380;28;20050;-74
2023/08/18 07:29:13;;;;;;;22.05;16.55;;;18.80;99.90;;;;;;4971055;28;20046;-75
2023/08/18 07:31:39;;;;;;;19.08;15.50;;;18.80;99.90;;;;;;4972454;28;20039;-74
2023/08/18 07:34:06;;;;;;;18.00;15.43;;;19.00;99.90;;;;;;4975337;28;20054;-74
2023/08/18 07:36:35;;;;;;;18.55;15.65;;;19.00;99.90;;;;;;4969190;28;20069;-75
2023/08/18 07:39:04;;;;;;;20.20;16.00;;;19.00;99.90;;;;;;4957505;28;20890;-75
2023/08/18 07:41:33;;;;;;;18.23;15.32;;;19.20;99.90;;;;;;4963979;28;20051;-74
2023/08/18 07:44:04;;;;;;;17.67;15.80;;;19.20;99.90;;;;;;4972279;28;20049;-75
2023/08/18 07:46:31;;;;;;;17.48;15.13;;;19.20;99.90;;;;;;4972955;28;20130;-74
2023/08/18 07:48:58;;;;;;;16.42;14.65;;;19.30;99.90;;;;;;4966132;28;20519;-77
2023/08/18 07:51:24;;;;;;;17.23;15.32;;;19.30;99.90;;;;;;4969751;28;20057;-76
2023/08/18 07:53:51;;;;;;;16.80;15.18;;;19.50;99.90;;;;;;4989166;28;20706;-77
2023/08/18 07:56:23;;;;;;;18.83;16.73;;;19.60;99.90;;;;;;4977066;28;20038;-76
2023/08/18 07:58:50;;;;;;;17.88;16.00;;;19.50;99.90;;;;;;4968286;28;20050;-76
2023/08/18 08:01:17;;;;;;;19.52;17.63;;;19.30;99.90;;;;;;4969767;28;20073;-74
2023/08/18 08:03:44;;;;;;;19.48;17.45;;;19.30;99.90;;;;;;4971515;28;20105;-77
2023/08/18 08:06:11;;;;;;;20.08;16.98;;;19.40;99.90;;;;;;4974620;28;20065;-75
2023/08/18 08:08:38;;;;;;;17.30;15.40;;;19.20;99.90;;;;;;4972100;28;20046;-74
2023/08/18 08:11:05;;;;;;;18.77;16.80;;;19.10;99.90;;;;;;4967274;28;20097;-74
2023/08/18 08:13:32;;;;;;;20.80;18.40;;;19.20;99.90;;;;;;4968732;28;20109;-75
2023/08/18 08:15:58;;;;;;;19.83;17.70;;;19.10;99.90;;;;;;4969628;28;20053;-74
2023/08/18 08:18:25;;;;;;;20.58;18.33;;;19.10;99.90;;;;;;4970862;28;20065;-77
2023/08/18 08:20:52;;;;;;;22.80;18.30;;;19.20;99.90;;;;;;4985589;28;20050;-77
2023/08/18 08:23:19;;;;;;;20.83;18.42;;;19.10;99.90;;;;;;4956507;28;20046;-75
2023/08/18 08:25:47;;;;;;;19.77;17.80;;;19.20;99.90;;;;;;4970236;28;20046;-75
2023/08/18 08:28:14;;;;;;;19.52;17.52;;;19.20;99.90;;;;;;4967532;28;20042;-75
2023/08/18 08:30:44;;;;;;;19.48;16.23;;;19.30;99.90;;;;;;4952646;28;20144;-75
2023/08/18 08:33:14;;;;;;;18.40;16.45;;;19.20;99.90;;;;;;4974339;28;20638;-76
2023/08/18 08:35:42;;;;;;;18.92;17.08;;;19.60;99.90;;;;;;4968354;28;20141;-75
2023/08/18 08:38:09;;;;;;;21.10;18.77;;;19.70;99.90;;;;;;4972486;28;20443;-75
2023/08/18 08:40:39;;;;;;;20.17;18.40;;;19.70;99.90;;;;;;4970824;28;20054;-75
2023/08/18 08:43:06;;;;;;;20.90;18.92;;;19.80;99.90;;;;;;4972556;28;20042;-75
2023/08/18 08:45:33;;;;;;;21.48;19.45;;;20.10;99.90;;;;;;4958308;28;20045;-75
2023/08/18 08:48:08;;;;;;;20.75;18.95;;;20.10;99.90;;;;;;4977219;28;20112;-75
2023/08/18 08:50:40;;;;;;;20.85;18.85;;;20.10;99.90;;;;;;4970113;28;20048;-75
2023/08/18 08:53:11;;;;;;;22.00;19.80;;;20.40;99.90;;;;;;4983961;28;20518;-75
2023/08/18 08:55:40;;;;;;;21.83;19.80;;;20.40;99.90;;;;;;4970787;28;20835;-75
2023/08/18 08:58:08;;;;;;;21.20;19.40;;;20.40;99.90;;;;;;4976673;28;20046;-75
2023/08/18 09:00:40;;;;;;;21.00;18.88;;;20.10;99.90;;;;;;4967145;28;20848;-74
2023/08/18 09:03:07;;;;;;;16.75;15.30;;;20.00;99.90;;;;;;4971995;28;20046;-75
2023/08/18 09:05:34;;;;;;;19.52;17.92;;;20.30;99.90;;;;;;4969967;28;20133;-75
2023/08/18 09:08:00;;;;;;;21.23;19.63;;;20.70;99.90;;;;;;4971349;28;20101;-75
2023/08/18 09:10:27;;;;;;;21.00;19.35;;;21.10;99.90;;;;;;4967886;28;20046;-75
2023/08/18 09:12:55;;;;;;;22.58;20.88;;;21.00;99.90;;;;;;4983519;28;20661;-75
2023/08/18 09:15:26;;;;;;;22.20;20.55;;;21.20;99.90;;;;;;4984466;28;20489;-75
2023/08/18 09:17:53;;;;;;;20.77;19.00;;;20.90;99.90;;;;;;4988140;28;20053;-75
2023/08/18 09:20:21;;;;;;;21.40;19.77;;;20.90;99.90;;;;;;4972531;28;20053;-75
2023/08/18 09:22:53;;;;;;;23.67;21.77;;;21.30;99.90;;;;;;4966137;28;20053;-75
2023/08/18 09:25:21;;;;;;;24.83;23.02;;;21.10;99.90;;;;;;4967167;28;20042;-74
2023/08/18 09:27:55;;;;;;;25.48;23.35;;;21.30;99.90;;;;;;4971363;28;21271;-75
2023/08/18 09:30:23;;;;;;;23.73;22.02;;;21.70;99.90;;;;;;4966399;28;20119;-75
2023/08/18 09:32:50;;;;;;;27.45;25.50;;;22.10;99.90;;;;;;4971734;28;20724;-75
2023/08/18 09:35:19;;;;;;;25.50;23.63;;;22.20;99.90;;;;;;4969918;28;20699;-75
2023/08/18 09:37:57;;;;;;;24.63;22.73;;;22.00;99.90;;;;;;4951084;28;20089;-75
2023/08/18 09:40:25;;;;;;;24.48;22.83;;;21.80;99.90;;;;;;4971298;28;20054;-75
2023/08/18 09:42:51;;;;;;;26.08;24.25;;;21.80;99.90;;;;;;4967493;28;20062;-75
2023/08/18 09:45:22;;;;;;;26.30;24.42;;;22.10;99.90;;;;;;4973298;28;20038;-75
2023/08/18 09:47:57;;;;;;;26.27;24.48;;;22.40;99.90;;;;;;4964544;28;20053;-75
2023/08/18 09:50:25;;;;;;;26.10;24.20;;;22.30;99.90;;;;;;4969171;28;20398;-75
2023/08/18 09:52:55;;;;;;;25.98;23.98;;;22.20;99.90;;;;;;4967534;28;20085;-75
2023/08/18 09:55:46;;;;;;;26.20;24.35;;;22.10;99.90;;;;;;4971223;28;20144;-76
2023/08/18 09:58:25;;;;;;;27.70;25.65;;;22.30;99.90;;;;;;4972134;28;20050;-75
2023/08/18 10:00:56;;;;;;;26.40;24.70;;;22.70;99.90;;;;;;4965282;28;20110;-74
2023/08/18 10:03:28;;;;;;;28.65;26.80;;;22.80;99.90;;;;;;4969404;28;20150;-75
2023/08/18 10:05:55;;;;;;;27.75;25.75;;;22.90;99.90;;;;;;4965873;28;20038;-75
2023/08/18 10:08:22;;;;;;;27.45;25.65;;;23.40;99.90;;;;;;4965372;28;20049;-75
2023/08/18 10:10:52;;;;;;;27.33;25.55;;;23.10;99.90;;;;;;4963409;28;20129;-75
2023/08/18 10:13:19;;;;;;;27.52;25.92;;;23.70;99.90;;;;;;4968908;28;20046;-75
2023/08/18 10:15:47;;;;;;;28.83;26.73;;;24.20;99.90;;;;;;4966641;28;20692;-75
2023/08/18 10:18:16;;;;;;;28.17;26.33;;;24.40;99.90;;;;;;4966268;28;20054;-75
2023/08/18 10:20:53;;;;;;;28.52;26.55;;;24.40;99.90;;;;;;4965314;28;20073;-76
2023/08/18 10:23:23;;;;;;;29.08;26.73;;;24.40;99.90;;;;;;4962627;28;20050;-74
2023/08/18 10:25:51;;;;;;;27.80;26.00;;;24.40;99.90;;;;;;4966855;28;20034;-75
2023/08/18 10:28:22;;;;;;;27.38;25.42;;;24.40;99.90;;;;;;4972184;28;20034;-75
2023/08/18 10:30:53;;;;;;;28.48;26.67;;;24.60;99.90;;;;;;4967848;28;20065;-75
2023/08/18 10:33:31;;;;;;;28.83;27.02;;;24.90;99.90;;;;;;4985688;28;20504;-75
2023/08/18 10:36:01;;;;;;;28.70;26.73;;;25.10;99.90;;;;;;4949933;28;20046;-75
2023/08/18 10:38:29;;;;;;;28.20;26.35;;;25.10;99.90;;;;;;4968123;28;20065;-75
2023/08/18 10:40:56;;;;;;;28.88;27.17;;;25.20;99.90;;;;;;4966522;28;20663;-75
2023/08/18 10:43:27;;;;;;;28.55;26.70;;;25.20;99.90;;;;;;4971099;28;20108;-75
2023/08/18 10:45:59;;;;;;;29.23;27.30;;;25.30;99.90;;;;;;4966249;28;20038;-74
2023/08/18 10:48:30;;;;;;;28.45;26.80;;;25.60;99.90;;;;;;4969796;28;20065;-75
2023/08/18 10:50:57;;;;;;;29.58;27.67;;;25.70;99.90;;;;;;4965453;28;20050;-75
2023/08/18 10:53:33;;;;;;;30.27;28.48;;;25.90;99.90;;;;;;4968239;28;20087;-75
2023/08/18 10:56:00;;;;;;;28.20;26.43;;;25.80;99.90;;;;;;4961684;28;21622;-75
2023/08/18 10:58:27;;;;;;;29.90;28.00;;;25.90;99.90;;;;;;4970028;28;20547;-75
2023/08/18 11:00:54;;;;;;;31.00;29.20;;;26.00;99.90;;;;;;4968922;28;20128;-74
2023/08/18 11:03:21;;;;;;;30.25;28.30;;;25.70;99.90;;;;;;4983437;28;20073;-74
2023/08/18 11:05:47;;;;;;;30.10;28.17;;;25.30;99.90;;;;;;4971116;28;20038;-75
2023/08/18 11:08:14;;;;;;;29.58;27.75;;;25.70;99.90;;;;;;4971791;28;20078;-74
2023/08/18 11:10:42;;;;;;;30.05;28.15;;;26.00;99.90;;;;;;4968096;28;20042;-75
2023/08/18 11:13:21;;;;;;;30.70;28.90;;;25.80;99.90;;;;;;4963906;28;20061;-75
2023/08/18 11:15:50;;;;;;;28.50;26.70;;;25.90;99.90;;;;;;4968069;28;20046;-75
2023/08/18 11:18:18;;;;;;;30.27;28.35;;;25.90;99.90;;;;;;4971995;28;20064;-75
2023/08/18 11:20:45;;;;;;;30.55;28.67;;;25.90;99.90;;;;;;4968122;28;20530;-75
2023/08/18 11:23:12;;;;;;;30.85;28.65;;;26.10;99.90;;;;;;4969555;28;20125;-75
2023/08/18 11:25:39;;;;;;;30.27;28.40;;;26.00;99.90;;;;;;4968290;28;20461;-75
2023/08/18 11:28:06;;;;;;;31.13;29.33;;;25.80;99.90;;;;;;4951862;28;20042;-74
2023/08/18 11:30:32;;;;;;;30.20;28.27;;;25.50;99.90;;;;;;4974895;28;20228;-75
2023/08/18 11:32:59;;;;;;;29.77;27.88;;;25.70;99.90;;;;;;4975354;28;20038;-75
2023/08/18 11:35:26;;;;;;;30.92;29.13;;;25.70;99.90;;;;;;4973377;28;20042;-75
2023/08/18 11:37:53;;;;;;;28.70;27.00;;;25.90;99.90;;;;;;4985173;28;20042;-74
2023/08/18 11:40:22;;;;;;;29.95;28.25;;;26.20;99.90;;;;;;4967969;28;20046;-75
2023/08/18 11:42:51;;;;;;;29.60;27.88;;;26.30;99.90;;;;;;4969077;28;20026;-74
2023/08/18 11:45:23;;;;;;;31.00;29.10;;;26.30;99.90;;;;;;4983311;28;20051;-75
2023/08/18 11:47:58;;;;;;;30.10;28.08;;;26.40;99.90;;;;;;4965784;28;20047;-77
2023/08/18 11:50:38;;;;;;;29.95;28.15;;;26.50;99.90;;;;;;4981132;28;20054;-75
2023/08/18 11:53:07;;;;;;;30.05;28.15;;;26.40;99.90;;;;;;4980465;28;20524;-76
2023/08/18 11:55:43;;;;;;;30.98;28.90;;;26.50;99.90;;;;;;4978497;28;20069;-77
2023/08/18 11:58:14;;;;;;;29.63;27.80;;;26.70;99.90;;;;;;4966036;28;20046;-76
2023/08/18 12:00:45;;;;;;;30.38;28.52;;;26.90;99.90;;;;;;4978251;28;20041;-77
2023/08/18 12:03:26;;;;;;;31.35;29.40;;;27.10;99.90;;;;;;4982521;28;20081;-76
2023/08/18 12:05:56;;;;;;;29.83;28.02;;;27.30;99.90;;;;;;4979708;28;21589;-78
2023/08/18 12:08:23;;;;;;;30.90;29.00;;;27.10;99.90;;;;;;4982052;28;20045;-75
2023/08/18 12:10:52;;;;;;;30.23;28.48;;;27.20;99.90;;;;;;4975211;28;20043;-77
2023/08/18 12:13:18;;;;;;;30.95;28.95;;;27.40;99.90;;;;;;4978552;28;20109;-77
2023/08/18 12:15:46;;;;;;;29.50;27.70;;;27.30;99.90;;;;;;4974039;28;20046;-76
2023/08/18 12:18:13;;;;;;;29.48;27.77;;;27.00;99.90;;;;;;4964958;28;20121;-78
2023/08/18 12:20:41;;;;;;;30.02;28.33;;;27.00;99.90;;;;;;4979709;28;20042;-76
2023/08/18 12:23:08;;;;;;;30.92;29.13;;;27.40;99.90;;;;;;4976611;28;20048;-77
2023/08/18 12:25:35;;;;;;;29.63;27.88;;;27.70;99.90;;;;;;4978145;28;20420;-76
2023/08/18 12:28:03;;;;;;;30.48;28.67;;;27.90;99.90;;;;;;4961089;28;20038;-77
2023/08/18 12:30:30;;;;;;;30.80;28.92;;;28.00;99.90;;;;;;4980096;28;20054;-77